Time;durP1;ratioP1;P1;durP2;ratioP2;P2;SDS_P1;SDS_P2;PMS_P1;PMS_P2;Temp;Humidity;BMP_temperature;BMP_pressure;BME280_temperature;BME280_humidity;BME280_pressure;Samples;Min_cycle;Max_cycle;Signal;HPM_P1;HPM_P2
2021/08/24 00:01:21;;;;;;;23.13;22.03;;;;;;;;;;4997010;28;20446;-63
2021/08/24 00:03:48;;;;;;;25.63;23.70;;;;;;;;;;5004590;28;20456;-63
2021/08/24 00:06:15;;;;;;;25.47;23.83;;;;;;;;;;5013742;28;20478;-64
2021/08/24 00:08:42;;;;;;;24.10;22.80;;;;;;;;;;5014383;28;20436;-64
2021/08/24 00:11:10;;;;;;;24.90;23.60;;;;;;;;;;5013209;28;20848;-64
2021/08/24 00:13:37;;;;;;;25.67;24.33;;;;;;;;;;4995308;28;20836;-63
2021/08/24 00:16:06;;;;;;;24.47;23.27;;;;;;;;;;4994458;28;20475;-63
2021/08/24 00:18:33;;;;;;;24.80;23.50;;;;;;;;;;5000952;28;20478;-63
2021/08/24 00:21:01;;;;;;;25.03;23.83;;;;;;;;;;5014158;28;20457;-63
2021/08/24 00:23:29;;;;;;;24.50;22.90;;;;;;;;;;4995429;28;20464;-64
2021/08/24 00:25:57;;;;;;;25.10;23.70;;;;;;;;;;4993052;28;20465;-64
2021/08/24 00:28:24;;;;;;;24.57;23.27;;;;;;;;;;4994002;28;20455;-64
2021/08/24 00:30:51;;;;;;;25.00;23.70;;;;;;;;;;4995549;28;20466;-64
2021/08/24 00:33:21;;;;;;;25.30;23.90;;;;;;;;;;4993686;28;20954;-64
2021/08/24 00:35:48;;;;;;;24.40;23.10;;;;;;;;;;5000160;28;20455;-64
2021/08/24 00:38:16;;;;;;;25.30;23.90;;;;;;;;;;4993583;28;21023;-64
2021/08/24 00:40:43;;;;;;;24.27;22.97;;;;;;;;;;4993836;28;20459;-65
2021/08/24 00:43:11;;;;;;;24.33;23.07;;;;;;;;;;4993919;28;20446;-64
2021/08/24 00:45:39;;;;;;;25.07;23.57;;;;;;;;;;4994146;28;20450;-64
2021/08/24 00:48:07;;;;;;;24.47;23.27;;;;;;;;;;4993346;28;21007;-65
2021/08/24 00:50:37;;;;;;;25.40;23.80;;;;;;;;;;4993644;28;20946;-64
2021/08/24 00:53:05;;;;;;;24.90;23.67;;;;;;;;;;4993828;28;20478;-64
2021/08/24 00:55:33;;;;;;;26.30;24.27;;;;;;;;;;4994639;28;20461;-64
2021/08/24 00:58:02;;;;;;;25.60;24.30;;;;;;;;;;4993407;28;20491;-64
2021/08/24 01:00:30;;;;;;;25.53;24.10;;;;;;;;;;4993798;28;20459;-64
2021/08/24 01:02:58;;;;;;;25.00;23.70;;;;;;;;;;5013751;28;20445;-64
2021/08/24 01:05:28;;;;;;;24.40;23.20;;;;;;;;;;5013033;28;20452;-64
2021/08/24 01:07:59;;;;;;;24.17;22.97;;;;;;;;;;4996448;28;20491;-65
2021/08/24 01:10:28;;;;;;;23.90;22.70;;;;;;;;;;4993682;28;20431;-64
2021/08/24 01:13:01;;;;;;;24.53;23.23;;;;;;;;;;5012719;28;20457;-64
2021/08/24 01:15:35;;;;;;;25.13;23.67;;;;;;;;;;5004579;28;20446;-64
2021/08/24 01:18:06;;;;;;;24.77;23.50;;;;;;;;;;4993172;28;20489;-65
2021/08/24 01:20:48;;;;;;;24.43;23.33;;;;;;;;;;4993857;28;20446;-64
2021/08/24 01:23:42;;;;;;;25.00;23.77;;;;;;;;;;5007754;28;20468;-64
2021/08/24 01:26:14;;;;;;;25.00;23.60;;;;;;;;;;4993328;28;20470;-65
2021/08/24 01:28:48;;;;;;;23.90;22.70;;;;;;;;;;4993683;28;20437;-65
2021/08/24 01:31:38;;;;;;;24.70;23.27;;;;;;;;;;4993022;28;20878;-65
2021/08/24 01:34:11;;;;;;;24.20;22.90;;;;;;;;;;4996449;28;20957;-65
2021/08/24 01:36:45;;;;;;;25.10;23.70;;;;;;;;;;5011145;28;20472;-65
2021/08/24 01:39:17;;;;;;;24.53;23.20;;;;;;;;;;5012033;28;20473;-67
2021/08/24 01:41:59;;;;;;;24.13;22.70;;;;;;;;;;5016400;28;20456;-65
2021/08/24 01:44:31;;;;;;;24.80;23.60;;;;;;;;;;5004254;28;20453;-66
2021/08/24 01:47:01;;;;;;;23.60;22.40;;;;;;;;;;5016620;28;20471;-65
2021/08/24 01:49:31;;;;;;;23.70;22.50;;;;;;;;;;5015792;28;20442;-66
2021/08/24 01:52:03;;;;;;;23.30;22.00;;;;;;;;;;5015484;28;20456;-65
2021/08/24 01:54:32;;;;;;;23.40;22.30;;;;;;;;;;5016085;28;20440;-65
2021/08/24 01:57:01;;;;;;;24.10;22.90;;;;;;;;;;5016245;28;20465;-65
2021/08/24 01:59:31;;;;;;;24.27;23.07;;;;;;;;;;5010432;28;20477;-65
2021/08/24 02:02:02;;;;;;;23.73;22.57;;;;;;;;;;4996790;28;20458;-65
2021/08/24 02:04:31;;;;;;;24.00;22.70;;;;;;;;;;4996992;28;20469;-65
2021/08/24 02:07:03;;;;;;;23.40;22.30;;;;;;;;;;5002963;28;20485;-65
2021/08/24 02:09:32;;;;;;;24.23;23.03;;;;;;;;;;5014812;28;20442;-65
2021/08/24 02:11:59;;;;;;;22.90;21.80;;;;;;;;;;5015693;28;20460;-65
2021/08/24 02:14:26;;;;;;;22.90;21.70;;;;;;;;;;5015762;28;20454;-65
2021/08/24 02:16:55;;;;;;;22.73;21.63;;;;;;;;;;5016376;28;20470;-65
2021/08/24 02:19:24;;;;;;;23.03;21.93;;;;;;;;;;5014315;28;20489;-65
2021/08/24 02:21:54;;;;;;;23.83;22.73;;;;;;;;;;4996626;28;20458;-65
2021/08/24 02:24:24;;;;;;;23.50;22.40;;;;;;;;;;4996817;28;20454;-65
2021/08/24 02:26:52;;;;;;;23.60;22.50;;;;;;;;;;4996454;28;21016;-65
2021/08/24 02:29:19;;;;;;;23.80;22.50;;;;;;;;;;4996808;28;20454;-65
2021/08/24 02:31:49;;;;;;;23.10;21.97;;;;;;;;;;5015742;28;20461;-66
2021/08/24 02:34:21;;;;;;;23.07;21.87;;;;;;;;;;5015702;28;20496;-65
2021/08/24 02:36:52;;;;;;;24.37;22.87;;;;;;;;;;5006098;28;20820;-65
2021/08/24 02:39:23;;;;;;;21.90;20.90;;;;;;;;;;4996629;28;20472;-65
2021/08/24 02:41:56;;;;;;;23.23;22.13;;;;;;;;;;4995684;28;20456;-65
2021/08/24 02:44:27;;;;;;;22.53;21.33;;;;;;;;;;4995883;28;20956;-65
2021/08/24 02:46:55;;;;;;;23.60;22.40;;;;;;;;;;4996023;28;20466;-64
2021/08/24 02:49:24;;;;;;;22.93;21.73;;;;;;;;;;4995831;28;20446;-65
2021/08/24 02:51:52;;;;;;;24.00;22.60;;;;;;;;;;5006813;28;20485;-65
2021/08/24 02:54:24;;;;;;;23.40;22.20;;;;;;;;;;5015741;28;20468;-65
2021/08/24 02:56:52;;;;;;;22.30;21.10;;;;;;;;;;5014609;28;20473;-65
2021/08/24 02:59:19;;;;;;;22.70;21.50;;;;;;;;;;5015743;28;20858;-65
2021/08/24 03:01:46;;;;;;;22.53;21.43;;;;;;;;;;5014331;28;20460;-65
2021/08/24 03:04:14;;;;;;;23.30;22.10;;;;;;;;;;5015420;28;20894;-65
2021/08/24 03:06:43;;;;;;;23.30;22.00;;;;;;;;;;5013649;28;20493;-66
2021/08/24 03:09:11;;;;;;;22.90;21.47;;;;;;;;;;5016065;28;20456;-65
2021/08/24 03:11:41;;;;;;;23.67;22.30;;;;;;;;;;4999039;28;20980;-64
2021/08/24 03:14:13;;;;;;;22.40;21.30;;;;;;;;;;4996132;28;20461;-64
2021/08/24 03:16:43;;;;;;;22.60;21.50;;;;;;;;;;5010938;28;20474;-65
2021/08/24 03:19:12;;;;;;;22.93;21.63;;;;;;;;;;5015701;28;20512;-65
2021/08/24 03:21:40;;;;;;;22.93;21.73;;;;;;;;;;5012785;28;20449;-65
2021/08/24 03:24:10;;;;;;;23.03;21.63;;;;;;;;;;5015263;28;20457;-65
2021/08/24 03:26:40;;;;;;;22.33;21.20;;;;;;;;;;4999944;28;20483;-66
2021/08/24 03:29:07;;;;;;;22.77;21.57;;;;;;;;;;4995822;28;20456;-65
2021/08/24 03:31:37;;;;;;;23.97;22.50;;;;;;;;;;4995904;28;20824;-65
2021/08/24 03:34:05;;;;;;;23.80;22.50;;;;;;;;;;4995938;28;20810;-65
2021/08/24 03:36:32;;;;;;;23.50;22.00;;;;;;;;;;4995845;28;20486;-65
2021/08/24 03:38:59;;;;;;;23.87;22.33;;;;;;;;;;4995923;28;20486;-65
2021/08/24 03:41:27;;;;;;;23.07;21.87;;;;;;;;;;4995670;28;20465;-65
2021/08/24 03:43:54;;;;;;;23.20;22.10;;;;;;;;;;4995682;28;20845;-65
2021/08/24 03:46:21;;;;;;;23.50;22.20;;;;;;;;;;5007321;28;20564;-65
2021/08/24 03:48:49;;;;;;;22.80;21.40;;;;;;;;;;5015914;28;20816;-65
2021/08/24 03:51:16;;;;;;;24.03;22.60;;;;;;;;;;5008021;28;20464;-65
2021/08/24 03:53:44;;;;;;;23.43;22.03;;;;;;;;;;5027064;28;20453;-65
2021/08/24 03:56:11;;;;;;;23.00;21.80;;;;;;;;;;5019945;28;20542;-65
2021/08/24 03:58:38;;;;;;;24.23;22.53;;;;;;;;;;5010752;28;20510;-66
2021/08/24 04:01:11;;;;;;;29.07;22.70;;;;;;;;;;5018063;28;20445;-66
2021/08/24 04:03:38;;;;;;;24.73;23.27;;;;;;;;;;5019202;28;20518;-65
2021/08/24 04:06:07;;;;;;;23.47;22.17;;;;;;;;;;5003574;28;20470;-66
2021/08/24 04:08:34;;;;;;;24.70;23.50;;;;;;;;;;5002849;28;20438;-65
2021/08/24 04:11:03;;;;;;;24.10;22.60;;;;;;;;;;5015459;28;20459;-66
2021/08/24 04:13:30;;;;;;;24.00;22.70;;;;;;;;;;5009810;28;20795;-66
2021/08/24 04:15:57;;;;;;;22.57;21.47;;;;;;;;;;4996511;28;21088;-66
2021/08/24 04:18:24;;;;;;;23.23;21.83;;;;;;;;;;4999477;28;20449;-65
2021/08/24 04:20:51;;;;;;;22.80;21.70;;;;;;;;;;5016089;28;21062;-66
2021/08/24 04:23:23;;;;;;;24.00;22.70;;;;;;;;;;5013424;28;20454;-66
2021/08/24 04:25:50;;;;;;;22.57;21.40;;;;;;;;;;5004688;28;20461;-65
2021/08/24 04:28:17;;;;;;;23.07;21.77;;;;;;;;;;5014628;28;20545;-65
2021/08/24 04:30:44;;;;;;;23.53;22.20;;;;;;;;;;5031289;28;20462;-66
2021/08/24 04:33:11;;;;;;;23.67;22.40;;;;;;;;;;5027488;28;20509;-69
2021/08/24 04:35:38;;;;;;;23.40;22.10;;;;;;;;;;5030880;28;20509;-66
2021/08/24 04:38:05;;;;;;;23.20;22.00;;;;;;;;;;5024462;28;20473;-66
2021/08/24 04:40:34;;;;;;;23.37;22.00;;;;;;;;;;5009966;28;20493;-65
2021/08/24 04:43:01;;;;;;;23.10;21.73;;;;;;;;;;4998088;28;20971;-65
2021/08/24 04:45:28;;;;;;;22.57;21.37;;;;;;;;;;5001529;28;20456;-67
2021/08/24 04:47:55;;;;;;;23.17;21.67;;;;;;;;;;5012181;28;20481;-65
2021/08/24 04:50:22;;;;;;;23.77;22.40;;;;;;;;;;4994095;28;20460;-66
2021/08/24 04:52:49;;;;;;;23.77;22.37;;;;;;;;;;4994605;28;20897;-66
2021/08/24 04:55:17;;;;;;;23.83;22.60;;;;;;;;;;4993781;28;20472;-66
2021/08/24 04:57:45;;;;;;;23.43;22.13;;;;;;;;;;4993898;28;20466;-65
2021/08/24 05:00:13;;;;;;;22.87;21.67;;;;;;;;;;4993447;28;20493;-66
2021/08/24 05:02:40;;;;;;;24.93;23.37;;;;;;;;;;4993958;28;20456;-65
2021/08/24 05:05:08;;;;;;;24.27;22.87;;;;;;;;;;5012687;28;20975;-66
2021/08/24 05:07:35;;;;;;;24.97;23.40;;;;;;;;;;5020809;22;21023;-65
2021/08/24 05:10:03;;;;;;;25.10;23.60;;;;;;;;;;5010735;28;20448;-66
2021/08/24 05:12:31;;;;;;;24.70;23.20;;;;;;;;;;5007779;28;20458;-65
2021/08/24 05:14:59;;;;;;;35.10;33.10;;;;;;;;;;5011320;28;20975;-67
2021/08/24 05:17:26;;;;;;;22.57;21.47;;;;;;;;;;5004952;28;20474;-67
2021/08/24 05:19:53;;;;;;;22.47;21.20;;;;;;;;;;5011561;28;20856;-67
2021/08/24 05:22:20;;;;;;;22.83;21.57;;;;;;;;;;5008954;28;20457;-67
2021/08/24 05:24:48;;;;;;;23.43;22.13;;;;;;;;;;4992664;28;20446;-67
2021/08/24 05:27:15;;;;;;;24.60;23.00;;;;;;;;;;4996444;28;20469;-67
2021/08/24 05:29:42;;;;;;;23.70;22.50;;;;;;;;;;5009261;28;20458;-69
2021/08/24 05:32:10;;;;;;;22.93;21.63;;;;;;;;;;5010479;28;20457;-68
2021/08/24 05:34:37;;;;;;;24.17;22.97;;;;;;;;;;5008145;28;20462;-67
2021/08/24 05:37:05;;;;;;;23.20;21.90;;;;;;;;;;5010063;28;21018;-69
2021/08/24 05:39:33;;;;;;;22.37;21.07;;;;;;;;;;4993125;28;20489;-69
2021/08/24 05:42:00;;;;;;;23.57;22.17;;;;;;;;;;4992816;28;20450;-69
2021/08/24 05:44:27;;;;;;;24.83;23.53;;;;;;;;;;4991898;28;20454;-69
2021/08/24 05:46:54;;;;;;;24.50;23.00;;;;;;;;;;4996196;28;20476;-66
2021/08/24 05:49:23;;;;;;;24.30;22.90;;;;;;;;;;5010780;28;20496;-66
2021/08/24 05:51:50;;;;;;;23.07;21.87;;;;;;;;;;5007261;28;20461;-65
2021/08/24 05:54:17;;;;;;;23.70;22.40;;;;;;;;;;4992040;28;20454;-66
2021/08/24 05:56:46;;;;;;;23.40;22.20;;;;;;;;;;4992086;28;20475;-66
2021/08/24 05:59:13;;;;;;;23.83;22.37;;;;;;;;;;4992049;28;20494;-67
2021/08/24 06:01:41;;;;;;;24.20;23.00;;;;;;;;;;4991640;28;20461;-66
2021/08/24 06:04:08;;;;;;;23.87;22.67;;;;;;;;;;5009445;28;20450;-67
2021/08/24 06:06:37;;;;;;;22.27;20.90;;;;;;;;;;5003873;28;20461;-66
2021/08/24 06:09:05;;;;;;;23.10;21.97;;;;;;;;;;5010504;28;20446;-67
2021/08/24 06:11:33;;;;;;;21.90;20.80;;;;;;;;;;5011046;28;20851;-67
2021/08/24 06:14:02;;;;;;;21.43;20.33;;;;;;;;;;5011040;28;20457;-67
2021/08/24 06:16:29;;;;;;;23.93;22.63;;;;;;;;;;4993420;28;20457;-69
2021/08/24 06:18:56;;;;;;;25.20;23.27;;;;;;;;;;4991767;28;20461;-67
2021/08/24 06:21:23;;;;;;;25.73;23.83;;;;;;;;;;4996413;28;20486;-69
2021/08/24 06:23:53;;;;;;;24.20;22.60;;;;;;;;;;5010223;28;20453;-72
2021/08/24 06:26:20;;;;;;;25.27;23.77;;;;;;;;;;5014297;28;20447;-69
2021/08/24 06:28:48;;;;;;;25.47;23.97;;;;;;;;;;5005486;28;20462;-71
2021/08/24 06:31:17;;;;;;;26.23;24.73;;;;;;;;;;4996766;28;20446;-70
2021/08/24 06:33:44;;;;;;;27.33;25.57;;;;;;;;;;5009921;28;20990;-70
2021/08/24 06:36:11;;;;;;;25.87;24.27;;;;;;;;;;5010521;28;20472;-70
2021/08/24 06:38:38;;;;;;;25.30;23.90;;;;;;;;;;5011884;28;20858;-70
2021/08/24 06:41:07;;;;;;;32.63;30.70;;;;;;;;;;5012550;28;21031;-67
2021/08/24 06:43:34;;;;;;;26.43;24.93;;;;;;;;;;5014358;28;20457;-68
2021/08/24 06:46:01;;;;;;;31.63;29.93;;;;;;;;;;5005520;28;20482;-71
2021/08/24 06:48:28;;;;;;;31.50;29.80;;;;;;;;;;4997323;28;20478;-71
2021/08/24 06:50:56;;;;;;;31.80;30.10;;;;;;;;;;4994865;28;20450;-71
2021/08/24 06:53:23;;;;;;;32.50;30.70;;;;;;;;;;4995082;28;20454;-71
2021/08/24 06:55:50;;;;;;;31.20;29.40;;;;;;;;;;5011841;28;20457;-71
2021/08/24 06:58:19;;;;;;;29.57;27.87;;;;;;;;;;5014499;28;20476;-69
2021/08/24 07:00:47;;;;;;;30.07;28.30;;;;;;;;;;5014037;28;20477;-71
2021/08/24 07:03:14;;;;;;;30.07;28.47;;;;;;;;;;5014068;28;20446;-71
2021/08/24 07:05:43;;;;;;;29.63;28.03;;;;;;;;;;5014262;28;20824;-71
2021/08/24 07:08:10;;;;;;;30.33;28.63;;;;;;;;;;5014155;28;20485;-71
2021/08/24 07:10:38;;;;;;;29.70;28.10;;;;;;;;;;5014030;28;20485;-70
2021/08/24 07:13:05;;;;;;;27.77;26.30;;;;;;;;;;5014253;28;20458;-71
2021/08/24 07:15:35;;;;;;;29.53;27.93;;;;;;;;;;5016104;28;20824;-71
2021/08/24 07:18:03;;;;;;;26.87;25.40;;;;;;;;;;5014240;28;20535;-71
2021/08/24 07:20:30;;;;;;;26.27;24.97;;;;;;;;;;5014020;28;20489;-71
2021/08/24 07:22:58;;;;;;;27.60;26.00;;;;;;;;;;5014215;28;20452;-71
2021/08/24 07:25:26;;;;;;;26.70;25.30;;;;;;;;;;5013837;28;20845;-71
2021/08/24 07:27:53;;;;;;;25.37;24.07;;;;;;;;;;5011550;28;20481;-71
2021/08/24 07:30:21;;;;;;;26.30;24.90;;;;;;;;;;4999023;28;20473;-70
2021/08/24 07:32:49;;;;;;;27.40;25.90;;;;;;;;;;4994426;28;20451;-69
2021/08/24 07:35:17;;;;;;;27.83;26.40;;;;;;;;;;4993958;28;20450;-70
2021/08/24 07:37:44;;;;;;;28.50;27.00;;;;;;;;;;4993976;28;20986;-70
2021/08/24 07:40:12;;;;;;;25.30;24.00;;;;;;;;;;4993576;28;21013;-71
2021/08/24 07:42:39;;;;;;;26.13;24.73;;;;;;;;;;5011212;28;21000;-71
2021/08/24 07:45:07;;;;;;;25.83;24.50;;;;;;;;;;5013607;28;20455;-71
2021/08/24 07:47:34;;;;;;;25.00;23.80;;;;;;;;;;5013406;28;20465;-70
2021/08/24 07:50:03;;;;;;;21.70;20.67;;;;;;;;;;5013013;28;20449;-71
2021/08/24 07:52:30;;;;;;;25.07;23.77;;;;;;;;;;5013357;28;20445;-71
2021/08/24 07:54:57;;;;;;;26.77;25.47;;;;;;;;;;5013124;28;20810;-71
2021/08/24 07:57:24;;;;;;;26.73;25.33;;;;;;;;;;5012977;28;20473;-71
2021/08/24 07:59:51;;;;;;;26.13;24.83;;;;;;;;;;5013151;28;20454;-71
2021/08/24 08:02:19;;;;;;;26.57;25.07;;;;;;;;;;5013209;28;20453;-72
2021/08/24 08:04:46;;;;;;;25.33;24.03;;;;;;;;;;5013411;28;20455;-71
2021/08/24 08:07:15;;;;;;;25.97;24.77;;;;;;;;;;5012915;28;20855;-71
2021/08/24 08:09:43;;;;;;;23.93;22.73;;;;;;;;;;5013259;28;20450;-71
2021/08/24 08:12:10;;;;;;;23.80;22.60;;;;;;;;;;5013013;28;20962;-71
2021/08/24 08:14:38;;;;;;;24.00;22.90;;;;;;;;;;5012780;28;20453;-71
2021/08/24 08:17:05;;;;;;;23.73;22.50;;;;;;;;;;5012411;28;20465;-68
2021/08/24 08:19:32;;;;;;;23.23;22.03;;;;;;;;;;5012758;28;20976;-71
2021/08/24 08:21:59;;;;;;;25.13;23.77;;;;;;;;;;5012675;28;20520;-71
2021/08/24 08:24:28;;;;;;;20.63;19.40;;;;;;;;;;5013979;28;20453;-71
2021/08/24 08:26:55;;;;;;;22.53;21.33;;;;;;;;;;5013314;28;20466;-69
2021/08/24 08:29:22;;;;;;;22.67;21.57;;;;;;;;;;5012817;28;20970;-71
2021/08/24 08:31:50;;;;;;;20.27;19.37;;;;;;;;;;5012119;28;20456;-70
2021/08/24 08:34:18;;;;;;;22.70;21.60;;;;;;;;;;5012977;28;20473;-71
2021/08/24 08:36:46;;;;;;;22.80;21.60;;;;;;;;;;5012095;28;20478;-71
2021/08/24 08:39:13;;;;;;;19.90;18.90;;;;;;;;;;5012744;28;20446;-71
2021/08/24 08:41:47;;;;;;;20.40;19.40;;;;;;;;;;5012332;28;20480;-71
2021/08/24 08:44:19;;;;;;;19.73;18.80;;;;;;;;;;5013036;28;20433;-71
2021/08/24 08:46:51;;;;;;;21.10;20.00;;;;;;;;;;5011927;28;20477;-71
2021/08/24 08:49:27;;;;;;;19.60;18.67;;;;;;;;;;5012213;28;20446;-70
2021/08/24 08:51:59;;;;;;;20.20;19.20;;;;;;;;;;5012820;28;20516;-70
2021/08/24 08:54:34;;;;;;;19.97;18.87;;;;;;;;;;5013416;28;20936;-71
2021/08/24 08:57:09;;;;;;;19.70;18.80;;;;;;;;;;5012427;28;20469;-71
2021/08/24 08:59:39;;;;;;;20.57;19.47;;;;;;;;;;5012138;28;20445;-70
2021/08/24 09:02:29;;;;;;;19.27;18.37;;;;;;;;;;5011675;28;20485;-71
2021/08/24 09:04:57;;;;;;;19.73;18.83;;;;;;;;;;5011788;28;20528;-70
2021/08/24 09:07:27;;;;;;;19.83;18.83;;;;;;;;;;5011797;28;20485;-69
2021/08/24 09:09:54;;;;;;;19.70;18.70;;;;;;;;;;5012259;28;20450;-71
2021/08/24 09:12:23;;;;;;;21.50;20.40;;;;;;;;;;5011710;28;20448;-71
2021/08/24 09:14:50;;;;;;;22.67;21.57;;;;;;;;;;5012279;28;20453;-71
2021/08/24 09:17:23;;;;;;;22.10;21.00;;;;;;;;;;5011576;28;20858;-71
2021/08/24 09:19:52;;;;;;;21.87;20.83;;;;;;;;;;5012145;28;20859;-71
2021/08/24 09:22:20;;;;;;;22.67;21.50;;;;;;;;;;5010956;28;20543;-71
2021/08/24 09:24:48;;;;;;;21.47;20.27;;;;;;;;;;5012419;28;20453;-71
2021/08/24 09:27:20;;;;;;;18.90;18.00;;;;;;;;;;5011463;28;20473;-69
2021/08/24 09:29:49;;;;;;;19.37;18.37;;;;;;;;;;5012061;28;20468;-71
2021/08/24 09:32:19;;;;;;;19.60;18.47;;;;;;;;;;5011733;28;20452;-70
2021/08/24 09:34:47;;;;;;;20.53;19.53;;;;;;;;;;5011827;28;20489;-71
2021/08/24 09:37:16;;;;;;;19.30;18.30;;;;;;;;;;5011604;28;20992;-71
2021/08/24 09:39:52;;;;;;;19.00;18.00;;;;;;;;;;5011556;28;20533;-71
2021/08/24 09:42:27;;;;;;;18.77;17.97;;;;;;;;;;5011315;28;20532;-70
2021/08/24 09:44:56;;;;;;;20.70;19.70;;;;;;;;;;5011837;28;20447;-71
2021/08/24 09:47:24;;;;;;;19.50;18.60;;;;;;;;;;5011547;28;20478;-70
2021/08/24 09:49:52;;;;;;;20.47;19.47;;;;;;;;;;5011861;28;20450;-69
2021/08/24 09:52:21;;;;;;;19.93;18.93;;;;;;;;;;5011408;28;21011;-71
2021/08/24 09:54:52;;;;;;;19.30;18.30;;;;;;;;;;5011591;28;20824;-71
2021/08/24 09:57:24;;;;;;;21.53;20.43;;;;;;;;;;5011246;28;20826;-70
2021/08/24 09:59:58;;;;;;;21.20;20.10;;;;;;;;;;5014526;28;20441;-71
2021/08/24 10:02:30;;;;;;;21.33;20.30;;;;;;;;;;5014728;28;20506;-71
2021/08/24 10:04:58;;;;;;;22.67;21.03;;;;;;;;;;5015695;28;20463;-71
2021/08/24 10:07:33;;;;;;;22.10;21.00;;;;;;;;;;5015525;28;20840;-71
2021/08/24 10:10:00;;;;;;;22.10;20.90;;;;;;;;;;5016233;28;20448;-71
2021/08/24 10:12:29;;;;;;;21.60;20.50;;;;;;;;;;5017312;28;20621;-71
2021/08/24 10:14:57;;;;;;;21.77;20.77;;;;;;;;;;5007242;28;20460;-70
2021/08/24 10:17:28;;;;;;;21.00;20.00;;;;;;;;;;4995667;28;20477;-71
2021/08/24 10:19:57;;;;;;;21.70;20.67;;;;;;;;;;4995811;28;20430;-71
2021/08/24 10:22:26;;;;;;;21.37;20.37;;;;;;;;;;4998244;28;20531;-70
2021/08/24 10:24:54;;;;;;;22.00;21.00;;;;;;;;;;4995402;28;20450;-71
2021/08/24 10:27:24;;;;;;;21.97;20.97;;;;;;;;;;4998375;28;20485;-70
2021/08/24 10:29:52;;;;;;;20.30;19.30;;;;;;;;;;5014790;28;20548;-71
2021/08/24 10:32:26;;;;;;;20.67;19.67;;;;;;;;;;5014841;28;20456;-71
2021/08/24 10:34:53;;;;;;;22.00;20.90;;;;;;;;;;5015109;28;20429;-71
2021/08/24 10:37:33;;;;;;;21.27;20.13;;;;;;;;;;5015017;28;20831;-71
2021/08/24 10:40:16;;;;;;;22.10;21.00;;;;;;;;;;5014492;28;20449;-71
2021/08/24 10:42:58;;;;;;;21.47;20.27;;;;;;;;;;5014715;28;20480;-71
2021/08/24 10:45:28;;;;;;;21.03;20.07;;;;;;;;;;5014741;28;20442;-71
2021/08/24 10:47:58;;;;;;;21.70;20.60;;;;;;;;;;5015565;28;20472;-71
2021/08/24 10:50:26;;;;;;;19.10;18.20;;;;;;;;;;5014170;28;20492;-70
2021/08/24 10:52:55;;;;;;;21.10;20.10;;;;;;;;;;5014765;28;20455;-70
2021/08/24 10:55:23;;;;;;;20.90;19.80;;;;;;;;;;5014471;28;20525;-71
2021/08/24 10:57:57;;;;;;;20.30;19.30;;;;;;;;;;5014274;28;20976;-69
2021/08/24 11:00:35;;;;;;;20.83;19.83;;;;;;;;;;5013327;28;20465;-70
2021/08/24 11:03:09;;;;;;;20.27;19.37;;;;;;;;;;5014385;28;20469;-70
2021/08/24 11:05:41;;;;;;;21.30;20.00;;;;;;;;;;5014238;28;20955;-68
2021/08/24 11:08:15;;;;;;;19.90;18.90;;;;;;;;;;5036219;22;20568;-60
2021/08/24 11:10:44;;;;;;;20.87;19.87;;;;;;;;;;5017966;28;20469;-60
2021/08/24 11:13:24;;;;;;;22.57;21.37;;;;;;;;;;5006152;28;20951;-60
2021/08/24 11:15:55;;;;;;;20.10;19.03;;;;;;;;;;5014174;28;20428;-60
2021/08/24 11:18:31;;;;;;;19.97;18.90;;;;;;;;;;5008465;28;20473;-60
2021/08/24 11:21:04;;;;;;;19.00;18.10;;;;;;;;;;4994287;28;20430;-60
2021/08/24 11:23:41;;;;;;;20.10;19.10;;;;;;;;;;4994338;28;20941;-60
2021/08/24 11:26:16;;;;;;;19.87;18.97;;;;;;;;;;4994955;28;20446;-60
2021/08/24 11:28:53;;;;;;;20.23;19.30;;;;;;;;;;4993906;28;20476;-60
2021/08/24 11:31:23;;;;;;;20.47;19.37;;;;;;;;;;4994048;28;20957;-59
2021/08/24 11:33:59;;;;;;;21.57;20.57;;;;;;;;;;4994207;28;20541;-60
2021/08/24 11:36:30;;;;;;;20.27;19.37;;;;;;;;;;4994095;28;20456;-59
2021/08/24 11:39:02;;;;;;;19.93;18.93;;;;;;;;;;4993627;28;20471;-60
2021/08/24 11:41:30;;;;;;;19.70;18.70;;;;;;;;;;4993716;28;20841;-60
2021/08/24 11:44:01;;;;;;;20.03;19.03;;;;;;;;;;4994045;28;20442;-60
2021/08/24 11:46:30;;;;;;;19.90;18.90;;;;;;;;;;4994174;28;20435;-60
2021/08/24 11:49:02;;;;;;;19.90;19.00;;;;;;;;;;4993882;28;20478;-60
2021/08/24 11:51:30;;;;;;;20.93;19.93;;;;;;;;;;4993740;28;20457;-60
2021/08/24 11:54:01;;;;;;;20.70;19.70;;;;;;;;;;4994136;28;20464;-60
2021/08/24 11:56:34;;;;;;;20.30;19.30;;;;;;;;;;4993944;28;20477;-60
2021/08/24 11:59:03;;;;;;;20.10;19.10;;;;;;;;;;4993289;28;20474;-60
2021/08/24 12:01:34;;;;;;;20.30;19.20;;;;;;;;;;4992849;28;21067;-60
2021/08/24 12:04:05;;;;;;;20.50;19.50;;;;;;;;;;4994315;28;20442;-60
2021/08/24 12:06:36;;;;;;;21.00;20.00;;;;;;;;;;4993748;28;20824;-59
2021/08/24 12:09:04;;;;;;;20.87;19.77;;;;;;;;;;4993450;28;20479;-60
2021/08/24 12:11:41;;;;;;;20.60;19.40;;;;;;;;;;4993146;28;20815;-60
2021/08/24 12:14:28;;;;;;;20.30;19.13;;;;;;;;;;4992983;28;20460;-60
2021/08/24 12:17:00;;;;;;;20.90;19.90;;;;;;;;;;4993796;28;20460;-60
2021/08/24 12:19:30;;;;;;;20.80;19.80;;;;;;;;;;4993952;28;20906;-60
2021/08/24 12:21:58;;;;;;;21.17;20.07;;;;;;;;;;4992709;28;20494;-59
2021/08/24 12:24:42;;;;;;;21.73;20.63;;;;;;;;;;4993808;28;20953;-60
2021/08/24 12:27:28;;;;;;;21.10;20.10;;;;;;;;;;4993960;28;20434;-60
2021/08/24 12:30:08;;;;;;;20.23;19.23;;;;;;;;;;4993375;28;20470;-60
2021/08/24 12:32:54;;;;;;;20.70;19.70;;;;;;;;;;4993805;28;20452;-60
2021/08/24 12:35:32;;;;;;;21.10;20.10;;;;;;;;;;4994142;28;20461;-60
2021/08/24 12:38:00;;;;;;;20.10;19.10;;;;;;;;;;4994139;28;20541;-60
2021/08/24 12:40:32;;;;;;;20.43;19.50;;;;;;;;;;4993081;28;20953;-60
2021/08/24 12:43:15;;;;;;;20.53;19.33;;;;;;;;;;4992173;28;21030;-60
2021/08/24 12:45:42;;;;;;;19.83;18.93;;;;;;;;;;4993292;28;20446;-60
2021/08/24 12:48:14;;;;;;;19.23;18.33;;;;;;;;;;4993584;28;20850;-60
2021/08/24 12:50:50;;;;;;;20.20;19.13;;;;;;;;;;4992851;28;20622;-60
2021/08/24 12:53:25;;;;;;;19.80;18.80;;;;;;;;;;4992992;28;20468;-60
2021/08/24 12:55:53;;;;;;;19.70;18.50;;;;;;;;;;4992770;28;20449;-60
2021/08/24 12:58:22;;;;;;;19.60;18.60;;;;;;;;;;4991864;28;20988;-60
2021/08/24 13:01:04;;;;;;;20.63;19.63;;;;;;;;;;4992514;28;20759;-60
2021/08/24 13:03:32;;;;;;;20.03;18.93;;;;;;;;;;4972822;28;20487;-60
2021/08/24 13:06:21;;;;;;;20.20;19.20;;;;;;;;;;4973671;28;20466;-61
2021/08/24 13:08:50;;;;;;;20.10;19.10;;;;;;;;;;4972594;28;20483;-60
2021/08/24 13:11:35;;;;;;;19.27;18.37;;;;;;;;;;4992350;28;20463;-60
2021/08/24 13:14:03;;;;;;;19.43;18.30;;;;;;;;;;4992438;28;21040;-60
2021/08/24 13:16:32;;;;;;;19.83;18.83;;;;;;;;;;4992668;28;20819;-61
2021/08/24 13:19:00;;;;;;;19.70;18.70;;;;;;;;;;4992446;28;20473;-60
2021/08/24 13:21:33;;;;;;;20.23;19.23;;;;;;;;;;4992126;28;20850;-60
2021/08/24 13:24:02;;;;;;;21.03;20.03;;;;;;;;;;4992515;28;20839;-60
2021/08/24 13:26:33;;;;;;;20.20;19.20;;;;;;;;;;4992492;28;20446;-60
2021/08/24 13:29:00;;;;;;;20.80;19.80;;;;;;;;;;4992468;28;20510;-60
2021/08/24 13:31:34;;;;;;;19.30;18.40;;;;;;;;;;4991967;28;20533;-60
2021/08/24 13:34:05;;;;;;;22.00;20.87;;;;;;;;;;4994979;28;20454;-60
2021/08/24 13:36:35;;;;;;;20.13;19.17;;;;;;;;;;4996605;28;20435;-60
2021/08/24 13:39:04;;;;;;;19.53;18.50;;;;;;;;;;4996408;28;20470;-60
2021/08/24 13:41:36;;;;;;;20.17;19.17;;;;;;;;;;4995928;28;20453;-60
2021/08/24 13:44:03;;;;;;;19.20;18.30;;;;;;;;;;4996495;28;20933;-60
2021/08/24 13:46:32;;;;;;;20.07;19.17;;;;;;;;;;4996579;28;20450;-60
2021/08/24 13:49:00;;;;;;;20.03;19.03;;;;;;;;;;4996091;28;20561;-60
2021/08/24 13:51:27;;;;;;;19.90;18.90;;;;;;;;;;4996081;28;20454;-60
2021/08/24 13:53:56;;;;;;;20.63;19.60;;;;;;;;;;4995761;28;20541;-60
2021/08/24 13:56:31;;;;;;;20.40;19.10;;;;;;;;;;4995661;28;20804;-62
2021/08/24 13:59:00;;;;;;;19.37;18.37;;;;;;;;;;4996033;28;20477;-60
2021/08/24 14:01:28;;;;;;;20.50;19.40;;;;;;;;;;4995894;28;20446;-62
2021/08/24 14:03:57;;;;;;;20.77;19.57;;;;;;;;;;4995902;28;20569;-62
2021/08/24 14:06:28;;;;;;;19.83;18.83;;;;;;;;;;4996053;28;20549;-59
2021/08/24 14:08:58;;;;;;;21.10;20.00;;;;;;;;;;4995155;28;20489;-59
2021/08/24 14:11:26;;;;;;;22.20;21.07;;;;;;;;;;4996015;28;20449;-59
2021/08/24 14:13:53;;;;;;;21.03;20.03;;;;;;;;;;4995962;28;20452;-60
2021/08/24 14:16:29;;;;;;;21.70;20.60;;;;;;;;;;4995523;28;20454;-58
2021/08/24 14:18:58;;;;;;;22.60;21.30;;;;;;;;;;4995867;28;20511;-59
2021/08/24 14:21:26;;;;;;;22.43;21.33;;;;;;;;;;4995847;28;20459;-59
2021/08/24 14:23:55;;;;;;;22.63;21.53;;;;;;;;;;4995368;28;20474;-61
2021/08/24 14:26:24;;;;;;;22.00;20.90;;;;;;;;;;4995424;28;20481;-60
2021/08/24 14:28:53;;;;;;;22.07;20.97;;;;;;;;;;4996329;28;20553;-60
2021/08/24 14:31:21;;;;;;;21.90;20.90;;;;;;;;;;4995886;28;20450;-60